Star Ranch, Idaho
Current Conditions -  °F | °C
As of 6:53 PM on Saturday 25 Oct 2014 (Local Time) from KBOI Reporting Station
Clear Clear  
Wind Chill: 67°   Ceiling: Unl
Heat Index: 67°   Visibility: 10mi
Dew Point: 38°   Wind: 12mph
Humidity: 34%   Direction: 250°WSW
Pressure: 29.77"   Gusts: NA
Location:  43.8008°N, 115.834°W
Report Text: KBOI 260053Z 25010KT 10SM CLR 19/03 A2977 RMK AO2 SLP071 T01940033
Loading
Personal Weather Stations






























Interactive Weather Map
Tropical Storm Tracking
New forecast layout! Learn more

10-Day Weather Forecast

Advertisements
Track Severe Weather on mobile